createdAt,value
2018-06-22T00:01:41.933Z,6.40
2018-06-22T00:04:10.412Z,9.37
2018-06-22T00:06:38.997Z,10.50
2018-06-22T00:09:09.018Z,8.27
2018-06-22T00:11:37.530Z,9.80
2018-06-22T00:14:06.385Z,9.27
2018-06-22T00:16:35.084Z,8.53
2018-06-22T00:19:03.850Z,8.37
2018-06-22T00:21:32.485Z,8.40
2018-06-22T00:24:01.099Z,5.87
2018-06-22T00:26:29.749Z,4.77
2018-06-22T00:28:58.409Z,4.17
2018-06-22T00:31:27.212Z,5.97
2018-06-22T00:33:55.930Z,7.97
2018-06-22T00:36:24.595Z,6.73
2018-06-22T00:38:53.164Z,6.27
2018-06-22T00:41:22.220Z,6.87
2018-06-22T00:43:50.860Z,6.00
2018-06-22T00:46:19.444Z,6.70
2018-06-22T00:48:48.443Z,8.50
2018-06-22T00:51:16.999Z,5.83
2018-06-22T00:53:56.879Z,6.87
2018-06-22T00:56:26.176Z,5.53
2018-06-22T00:58:54.900Z,4.70
2018-06-22T01:01:23.799Z,6.53
2018-06-22T01:03:52.623Z,9.80
2018-06-22T01:06:21.416Z,7.70
2018-06-22T01:08:50.596Z,7.40
2018-06-22T01:11:19.258Z,6.63
2018-06-22T01:13:48.065Z,6.60
2018-06-22T01:16:16.868Z,5.03
2018-06-22T01:18:45.575Z,9.87
2018-06-22T01:21:14.338Z,5.23
2018-06-22T01:23:43.140Z,6.67
2018-06-22T01:26:11.919Z,9.90
2018-06-22T01:28:40.707Z,4.67
2018-06-22T01:31:09.570Z,7.60
2018-06-22T01:33:38.307Z,6.10
2018-06-22T01:36:07.130Z,8.83
2018-06-22T01:38:35.949Z,9.40
2018-06-22T01:41:04.676Z,7.57
2018-06-22T01:43:33.372Z,4.73
2018-06-22T01:46:02.040Z,9.37
2018-06-22T01:48:30.812Z,8.27
2018-06-22T01:50:59.498Z,6.20
2018-06-22T01:53:28.346Z,7.67
2018-06-22T01:55:57.042Z,4.70
2018-06-22T01:58:25.743Z,13.20
2018-06-22T02:00:54.606Z,8.17
2018-06-22T02:03:23.337Z,9.70
2018-06-22T02:05:52.025Z,6.03
2018-06-22T02:08:20.698Z,5.70
2018-06-22T02:10:49.425Z,11.23
2018-06-22T02:13:18.114Z,7.60
2018-06-22T02:15:46.920Z,11.17
2018-06-22T02:18:15.623Z,5.87
2018-06-22T02:20:44.285Z,3.70
2018-06-22T02:23:13.053Z,10.53
2018-06-22T02:25:41.837Z,5.90
2018-06-22T02:28:10.606Z,9.20
2018-06-22T02:30:39.327Z,9.13
2018-06-22T02:33:07.980Z,9.23
2018-06-22T02:35:36.634Z,5.27
2018-06-22T02:38:05.339Z,7.37
2018-06-22T02:40:34.008Z,7.53
2018-06-22T02:43:02.719Z,5.93
2018-06-22T02:45:31.438Z,8.03
2018-06-22T02:48:00.086Z,7.03
2018-06-22T02:50:28.778Z,6.03
2018-06-22T02:52:57.573Z,9.37
2018-06-22T02:55:26.289Z,8.53
2018-06-22T02:57:55.075Z,5.47
2018-06-22T03:00:23.741Z,5.20
2018-06-22T03:02:52.531Z,8.93
2018-06-22T03:05:21.209Z,5.87
2018-06-22T03:07:49.770Z,4.77
2018-06-22T03:10:18.559Z,5.50
2018-06-22T03:12:47.360Z,6.03
2018-06-22T03:15:16.052Z,8.23
2018-06-22T03:17:44.804Z,4.63
2018-06-22T03:20:13.489Z,5.53
2018-06-22T03:22:42.333Z,7.90
2018-06-22T03:25:11.159Z,6.17
2018-06-22T03:27:39.807Z,6.90
2018-06-22T03:30:08.498Z,9.77
2018-06-22T03:32:37.145Z,7.30
2018-06-22T03:35:05.936Z,4.73
2018-06-22T03:37:34.625Z,7.63
2018-06-22T03:40:03.335Z,5.53
2018-06-22T03:42:31.995Z,9.33
2018-06-22T03:45:01.631Z,6.63
2018-06-22T03:47:30.301Z,2.83
2018-06-22T03:49:59.084Z,5.30
2018-06-22T03:52:27.748Z,9.63
2018-06-22T03:54:56.533Z,4.47
2018-06-22T03:57:25.237Z,3.57
2018-06-22T03:59:54.027Z,5.63
2018-06-22T04:02:22.683Z,7.13
2018-06-22T04:04:51.461Z,4.97
2018-06-22T04:07:20.402Z,7.57
2018-06-22T04:09:49.417Z,7.97
2018-06-22T04:12:18.352Z,5.37
2018-06-22T04:14:47.552Z,10.53
2018-06-22T04:17:16.322Z,7.47
2018-06-22T04:19:45.498Z,8.80
2018-06-22T04:22:15.028Z,8.87
2018-06-22T04:24:43.924Z,5.03
2018-06-22T04:27:13.178Z,5.73
2018-06-22T04:29:42.184Z,5.27
2018-06-22T04:32:10.965Z,6.17
2018-06-22T04:34:39.827Z,12.57
2018-06-22T04:37:09.220Z,11.77
2018-06-22T04:39:37.972Z,2.63
2018-06-22T04:42:06.973Z,8.73
2018-06-22T04:44:36.069Z,9.53
2018-06-22T04:47:04.913Z,9.37
2018-06-22T04:49:35.171Z,9.13
2018-06-22T04:52:04.449Z,7.57
2018-06-22T04:54:33.332Z,11.77
2018-06-22T04:57:02.243Z,8.50
2018-06-22T04:59:31.200Z,5.50
2018-06-22T05:02:00.671Z,9.07
2018-06-22T05:04:29.609Z,6.27
2018-06-22T05:06:58.825Z,7.50
2018-06-22T05:09:29.836Z,9.17
2018-06-22T05:11:58.727Z,9.80
2018-06-22T05:14:27.452Z,9.13
2018-06-22T05:16:56.054Z,9.40
2018-06-22T05:19:24.660Z,5.67
2018-06-22T05:21:53.704Z,4.70
2018-06-22T05:24:22.842Z,6.77
2018-06-22T05:26:51.916Z,9.30
2018-06-22T05:29:20.821Z,6.73
2018-06-22T05:31:49.593Z,6.60
2018-06-22T05:34:18.444Z,9.43
2018-06-22T05:36:47.812Z,5.17
2018-06-22T05:39:17.450Z,8.47
2018-06-22T05:41:46.521Z,6.90
2018-06-22T05:44:15.524Z,7.70
2018-06-22T05:46:44.537Z,7.70
2018-06-22T05:49:13.407Z,5.93
2018-06-22T05:51:42.215Z,11.43
2018-06-22T05:54:11.088Z,6.90
2018-06-22T05:56:39.912Z,8.13
2018-06-22T05:59:08.889Z,5.80
2018-06-22T06:01:37.753Z,7.67
2018-06-22T06:04:08.807Z,5.97
2018-06-22T06:06:37.695Z,6.27
2018-06-22T06:09:08.352Z,7.60
2018-06-22T06:11:37.784Z,8.27
2018-06-22T06:14:07.274Z,5.17
2018-06-22T06:16:36.680Z,8.10
2018-06-22T06:19:06.213Z,8.47
2018-06-22T06:21:35.908Z,6.80
2018-06-22T06:24:05.030Z,9.30
2018-06-22T06:26:34.215Z,6.10
2018-06-22T06:29:03.342Z,6.13
2018-06-22T06:31:33.211Z,7.37
2018-06-22T06:34:02.210Z,6.93
2018-06-22T06:36:31.708Z,6.37
2018-06-22T06:39:00.543Z,5.47
2018-06-22T06:41:29.701Z,11.13
2018-06-22T06:43:58.455Z,6.87
2018-06-22T06:46:27.162Z,9.60
2018-06-22T06:48:56.196Z,7.27
2018-06-22T06:51:24.882Z,8.60
2018-06-22T06:53:53.943Z,6.57
2018-06-22T06:56:22.922Z,10.60
2018-06-22T06:58:51.558Z,5.93
2018-06-22T07:01:20.280Z,8.27
2018-06-22T07:03:49.097Z,7.57
2018-06-22T07:06:17.782Z,6.70
2018-06-22T07:08:46.539Z,10.73
2018-06-22T07:11:15.326Z,7.10
2018-06-22T07:13:44.097Z,7.63
2018-06-22T07:16:12.801Z,7.77
2018-06-22T07:18:41.476Z,11.33
2018-06-22T07:21:10.059Z,9.57
2018-06-22T07:23:38.852Z,11.00
2018-06-22T07:26:07.512Z,11.23
2018-06-22T07:28:36.123Z,10.57
2018-06-22T07:31:04.792Z,15.77
2018-06-22T07:33:33.489Z,15.50
2018-06-22T07:36:02.153Z,10.53
2018-06-22T07:38:30.801Z,12.63
2018-06-22T07:40:59.437Z,10.07
2018-06-22T07:43:28.096Z,12.70
2018-06-22T07:45:56.799Z,12.53
2018-06-22T07:48:25.443Z,7.90
2018-06-22T07:50:54.167Z,8.70
2018-06-22T07:53:22.871Z,14.77
2018-06-22T07:55:51.589Z,13.43
2018-06-22T07:58:20.265Z,9.13
2018-06-22T08:00:48.898Z,14.57
2018-06-22T08:03:17.436Z,8.93
2018-06-22T08:05:46.122Z,6.47
2018-06-22T08:08:14.690Z,8.30
2018-06-22T08:10:43.315Z,11.30
2018-06-22T08:13:11.847Z,13.27
2018-06-22T08:15:40.695Z,8.57
2018-06-22T08:18:09.417Z,18.27
2018-06-22T08:20:38.852Z,10.47
2018-06-22T08:23:07.460Z,12.37
2018-06-22T08:25:36.214Z,14.03
2018-06-22T08:28:04.934Z,16.50
2018-06-22T08:30:33.625Z,13.23
2018-06-22T08:33:02.213Z,9.50
2018-06-22T08:35:30.904Z,11.60
2018-06-22T08:38:00.354Z,18.33
2018-06-22T08:40:29.260Z,16.57
2018-06-22T08:42:58.791Z,13.40
2018-06-22T08:45:27.540Z,14.20
2018-06-22T08:47:56.324Z,13.93
2018-06-22T08:50:25.528Z,11.20
2018-06-22T08:52:54.676Z,9.47
2018-06-22T08:55:23.844Z,12.27
2018-06-22T08:57:53.425Z,18.50
2018-06-22T09:00:22.443Z,11.17
2018-06-22T09:02:51.355Z,14.80
2018-06-22T09:05:20.215Z,13.10
2018-06-22T09:07:49.172Z,12.27
2018-06-22T09:10:18.301Z,8.33
2018-06-22T09:12:47.375Z,8.43
2018-06-22T09:15:16.361Z,9.63
2018-06-22T09:17:45.825Z,11.17
2018-06-22T09:20:19.115Z,13.93
2018-06-22T09:22:47.934Z,13.07
2018-06-22T09:25:19.753Z,9.63
2018-06-22T09:27:48.581Z,17.27
2018-06-22T09:30:17.492Z,13.53
2018-06-22T09:32:46.254Z,11.50
2018-06-22T09:35:15.070Z,5.33
2018-06-22T09:37:43.966Z,8.13
2018-06-22T09:40:12.704Z,7.60
2018-06-22T09:42:41.529Z,9.70
2018-06-22T09:45:10.375Z,12.73
2018-06-22T09:47:39.151Z,6.10
2018-06-22T09:50:07.874Z,7.10
2018-06-22T09:52:36.924Z,7.67
2018-06-22T09:55:05.987Z,10.87
2018-06-22T09:57:34.794Z,10.07
2018-06-22T10:00:03.686Z,7.57
2018-06-22T10:02:32.615Z,9.63
2018-06-22T10:05:01.709Z,6.00
2018-06-22T10:07:30.882Z,5.67
2018-06-22T10:09:59.642Z,6.67
2018-06-22T10:12:28.433Z,6.53
2018-06-22T10:14:57.343Z,7.13
2018-06-22T10:17:26.518Z,11.50
2018-06-22T10:19:55.294Z,11.73
2018-06-22T10:22:24.370Z,4.47
2018-06-22T10:24:53.118Z,7.00
2018-06-22T10:27:21.997Z,6.27
2018-06-22T10:29:50.740Z,8.00
2018-06-22T10:32:19.617Z,12.03
2018-06-22T10:34:48.503Z,9.03
2018-06-22T10:37:17.297Z,10.73
2018-06-22T10:39:46.020Z,8.97
2018-06-22T10:42:14.784Z,7.23
2018-06-22T10:44:43.530Z,8.67
2018-06-22T10:47:12.278Z,9.37
2018-06-22T10:49:41.330Z,7.90
2018-06-22T10:52:10.289Z,10.10
2018-06-22T10:54:39.451Z,7.17
2018-06-22T10:57:08.420Z,10.97
2018-06-22T10:59:37.512Z,6.50
2018-06-22T11:02:06.606Z,8.70
2018-06-22T11:04:35.534Z,7.30
2018-06-22T11:07:05.219Z,12.57
2018-06-22T11:09:34.100Z,9.33
2018-06-22T11:12:03.113Z,5.83
2018-06-22T11:14:32.136Z,9.23
2018-06-22T11:17:01.392Z,7.13
2018-06-22T11:19:30.221Z,11.27
2018-06-22T11:21:59.030Z,6.47
2018-06-22T11:24:28.410Z,7.37
2018-06-22T11:26:57.644Z,6.00
2018-06-22T11:29:26.518Z,7.43
2018-06-22T11:31:56.177Z,5.73
2018-06-22T11:34:25.452Z,7.17
2018-06-22T11:36:54.640Z,4.27
2018-06-22T11:39:23.716Z,5.30
2018-06-22T11:41:52.711Z,5.87
2018-06-22T11:44:21.695Z,3.23
2018-06-22T11:46:50.524Z,6.13
2018-06-22T11:49:19.694Z,5.40
2018-06-22T11:51:48.637Z,4.80
2018-06-22T11:54:17.850Z,5.93
2018-06-22T11:56:47.351Z,5.07
2018-06-22T11:59:16.556Z,1.70
2018-06-22T12:01:45.864Z,2.83
2018-06-22T12:04:15.081Z,5.80
2018-06-22T12:06:44.072Z,5.63
2018-06-22T12:09:13.938Z,4.17
2018-06-22T12:11:43.779Z,4.13
2018-06-22T12:14:12.553Z,2.93
2018-06-22T12:16:41.169Z,4.30
2018-06-22T12:19:09.951Z,3.87
2018-06-22T12:21:38.622Z,5.47
2018-06-22T12:24:38.177Z,9.10
2018-06-22T12:27:09.309Z,4.33
2018-06-22T12:30:13.037Z,5.90
2018-06-22T12:32:48.605Z,4.30
2018-06-22T12:35:21.225Z,4.00
2018-06-22T12:37:50.174Z,4.27
2018-06-22T12:40:19.041Z,3.67
2018-06-22T12:42:56.683Z,3.63
2018-06-22T12:46:05.157Z,3.63
2018-06-22T12:48:37.726Z,5.67
2018-06-22T12:51:15.741Z,6.13
2018-06-22T12:53:54.217Z,5.17
2018-06-22T12:56:23.373Z,4.37
2018-06-22T12:59:10.813Z,5.27
2018-06-22T13:05:32.354Z,6.37
2018-06-22T13:08:12.776Z,4.50
2018-06-22T13:10:48.069Z,5.30
2018-06-22T13:13:22.080Z,5.50
2018-06-22T13:15:57.204Z,3.70
2018-06-22T13:18:35.712Z,3.77
2018-06-22T13:21:10.705Z,5.13
2018-06-22T13:23:39.828Z,3.00
2018-06-22T13:26:08.487Z,4.70
2018-06-22T13:28:43.597Z,3.50
2018-06-22T13:31:14.213Z,2.50
2018-06-22T13:33:59.597Z,4.90
2018-06-22T13:36:44.074Z,5.93
2018-06-22T13:39:30.944Z,3.97
2018-06-22T13:42:03.904Z,4.37
2018-06-22T13:44:33.018Z,4.50
2018-06-22T13:47:01.720Z,6.13
2018-06-22T13:49:30.541Z,5.53
2018-06-22T13:52:00.262Z,3.03
2018-06-22T13:54:29.288Z,6.67
2018-06-22T13:56:58.625Z,3.83
2018-06-22T14:02:07.014Z,5.43
2018-06-22T14:04:42.040Z,5.97
2018-06-22T14:07:10.872Z,6.43
2018-06-22T14:09:39.661Z,4.53
2018-06-22T14:12:08.464Z,6.27
2018-06-22T14:14:37.048Z,3.20
2018-06-22T14:17:05.708Z,3.80
2018-06-22T14:19:34.323Z,7.50
2018-06-22T14:22:03.131Z,7.93
2018-06-22T14:24:31.796Z,3.77
2018-06-22T14:27:00.531Z,2.77
2018-06-22T14:29:30.360Z,5.97
2018-06-22T14:31:59.028Z,7.87
2018-06-22T14:34:27.648Z,2.87
2018-06-22T14:36:56.348Z,5.03
2018-06-22T14:39:25.275Z,6.37
2018-06-22T14:41:54.109Z,4.17
2018-06-22T14:44:23.016Z,4.30
2018-06-22T14:46:51.798Z,3.17
2018-06-22T14:49:20.638Z,4.13
2018-06-22T14:51:53.359Z,2.47
2018-06-22T14:54:27.474Z,2.10
2018-06-22T14:57:01.406Z,9.57
2018-06-22T14:59:35.435Z,6.07
2018-06-22T15:02:09.244Z,7.67
2018-06-22T15:04:43.102Z,10.73
2018-06-22T15:07:17.000Z,4.67
2018-06-22T15:09:46.246Z,5.87
2018-06-22T15:12:15.138Z,5.83
2018-06-22T15:14:43.770Z,9.73
2018-06-22T15:17:13.377Z,7.47
2018-06-22T15:19:43.877Z,7.23
2018-06-22T15:22:13.625Z,4.23
2018-06-22T15:24:45.169Z,4.07
2018-06-22T15:27:15.123Z,6.00
2018-06-22T15:29:44.031Z,4.03
2018-06-22T15:32:12.747Z,4.53
2018-06-22T15:34:46.716Z,6.20
2018-06-22T15:37:20.611Z,5.43
2018-06-22T15:39:55.148Z,4.50
2018-06-22T15:42:28.928Z,2.60
2018-06-22T15:45:02.784Z,5.60
2018-06-22T15:47:36.472Z,4.07
2018-06-22T15:50:10.476Z,1.87
2018-06-22T15:52:44.320Z,3.13
2018-06-22T15:55:16.474Z,4.10
2018-06-22T15:57:46.918Z,3.43
2018-06-22T16:05:57.058Z,3.43
2018-06-22T16:08:25.835Z,6.07
2018-06-22T16:10:54.616Z,2.60
2018-06-22T16:13:23.477Z,5.27
2018-06-22T16:15:57.527Z,4.67
2018-06-22T16:18:31.468Z,6.17
2018-06-22T16:21:05.273Z,4.00
2018-06-22T16:23:39.185Z,3.37
2018-06-22T16:26:13.052Z,5.63
2018-06-22T16:28:41.977Z,4.63
2018-06-22T16:31:10.731Z,4.80
2018-06-22T16:33:43.626Z,5.03
2018-06-22T16:36:12.414Z,3.80
2018-06-22T16:38:41.194Z,3.03
2018-06-22T16:41:10.028Z,5.43
2018-06-22T16:43:39.255Z,4.73
2018-06-22T16:46:08.010Z,3.83
2018-06-22T16:48:36.623Z,4.50
2018-06-22T16:51:05.290Z,4.77
2018-06-22T16:53:34.209Z,6.27
2018-06-22T16:56:02.915Z,5.63
2018-06-22T16:58:36.937Z,5.57
2018-06-22T17:01:06.498Z,4.27
2018-06-22T17:03:35.212Z,7.07
2018-06-22T17:06:04.019Z,5.40
2018-06-22T17:08:37.973Z,4.10
2018-06-22T17:11:11.834Z,4.07
2018-06-22T17:13:45.733Z,6.20
2018-06-22T17:16:19.630Z,3.30
2018-06-22T17:18:55.287Z,7.50
2018-06-22T17:21:24.263Z,3.53
2018-06-22T17:23:53.479Z,5.53
2018-06-22T17:26:22.996Z,5.07
2018-06-22T17:28:51.725Z,7.63
2018-06-22T17:31:20.724Z,5.03
2018-06-22T17:33:49.978Z,4.60
2018-06-22T17:36:19.112Z,3.40
2018-06-22T17:38:48.211Z,6.43
2018-06-22T17:41:18.343Z,3.83
2018-06-22T17:43:47.060Z,8.07
2018-06-22T17:46:16.507Z,7.80
2018-06-22T17:48:45.283Z,6.53
2018-06-22T17:51:14.140Z,10.20
2018-06-22T17:53:42.852Z,4.13
2018-06-22T17:56:16.198Z,6.03
2018-06-22T17:58:49.005Z,5.20
2018-06-22T18:01:22.960Z,5.90
2018-06-22T18:03:57.001Z,8.60
2018-06-22T18:06:31.771Z,8.87
2018-06-22T18:09:00.659Z,5.77
2018-06-22T18:11:34.598Z,4.33
2018-06-22T18:14:03.986Z,5.87
2018-06-22T18:16:32.930Z,8.53
2018-06-22T18:19:04.316Z,7.40
2018-06-22T18:21:33.142Z,4.30
2018-06-22T18:24:01.939Z,5.00
2018-06-22T18:26:30.748Z,4.97
2018-06-22T18:28:59.639Z,3.37
2018-06-22T18:31:28.379Z,5.57
2018-06-22T18:33:57.477Z,5.07
2018-06-22T18:36:26.615Z,8.13
2018-06-22T18:38:55.867Z,6.10
2018-06-22T18:41:25.009Z,8.73
2018-06-22T18:43:59.827Z,6.33
2018-06-22T18:46:29.953Z,5.33
2018-06-22T18:48:58.920Z,7.03
2018-06-22T18:51:28.188Z,7.73
2018-06-22T18:54:01.973Z,5.43
2018-06-22T18:56:36.225Z,4.53
2018-06-22T18:59:09.981Z,5.33
2018-06-22T19:01:44.006Z,5.67
2018-06-22T19:04:13.074Z,3.83
2018-06-22T19:06:42.013Z,6.10
2018-06-22T19:09:15.350Z,7.03
2018-06-22T19:11:47.978Z,4.17
2018-06-22T19:14:16.694Z,5.40
2018-06-22T19:16:45.618Z,4.03
2018-06-22T19:19:14.445Z,2.70
2018-06-22T19:21:43.212Z,3.93
2018-06-22T19:24:12.018Z,6.03
2018-06-22T19:26:40.860Z,6.30
2018-06-22T19:29:09.574Z,6.23
2018-06-22T19:31:38.338Z,4.83
2018-06-22T19:34:07.427Z,4.33
2018-06-22T19:36:35.103Z,7.43
2018-06-22T19:39:03.929Z,7.23
2018-06-22T19:41:37.705Z,7.10
2018-06-22T19:44:11.584Z,5.10
2018-06-22T19:46:45.624Z,5.97
2018-06-22T19:49:19.393Z,3.50
2018-06-22T19:51:53.221Z,7.93
2018-06-22T19:54:21.945Z,6.77
2018-06-22T19:56:50.726Z,7.37
2018-06-22T19:59:19.472Z,5.97
2018-06-22T20:01:48.211Z,5.97
2018-06-22T20:04:17.501Z,6.87
2018-06-22T20:06:46.175Z,5.13
2018-06-22T20:09:14.872Z,8.30
2018-06-22T20:11:43.655Z,6.60
2018-06-22T20:14:12.863Z,8.17
2018-06-22T20:16:41.623Z,4.33
2018-06-22T20:19:10.319Z,4.20
2018-06-22T20:21:39.984Z,9.17
2018-06-22T20:24:08.604Z,9.13
2018-06-22T20:26:37.507Z,8.20
2018-06-22T20:29:06.330Z,6.77
2018-06-22T20:31:41.358Z,7.77
2018-06-22T20:34:15.161Z,11.10
2018-06-22T20:36:49.550Z,8.27
2018-06-22T20:39:23.910Z,8.67
2018-06-22T20:41:57.674Z,10.73
2018-06-22T20:44:31.561Z,5.40
2018-06-22T20:47:05.383Z,7.23
2018-06-22T20:49:39.183Z,4.60
2018-06-22T20:52:07.820Z,13.30
2018-06-22T20:54:36.495Z,10.17
2018-06-22T20:57:05.235Z,7.30
2018-06-22T20:59:33.846Z,6.90
2018-06-22T21:02:02.558Z,12.47
2018-06-22T21:04:31.309Z,9.67
2018-06-22T21:06:59.902Z,15.57
2018-06-22T21:09:28.645Z,9.37
2018-06-22T21:11:57.270Z,7.40
2018-06-22T21:14:26.107Z,10.37
2018-06-22T21:16:54.794Z,11.10
2018-06-22T21:19:23.493Z,9.77
2018-06-22T21:21:57.219Z,9.53
2018-06-22T21:24:25.965Z,12.87
2018-06-22T21:26:54.679Z,8.53
2018-06-22T21:29:28.536Z,8.03
2018-06-22T21:32:02.225Z,11.37
2018-06-22T21:34:33.827Z,13.80
2018-06-22T21:37:07.383Z,12.93
2018-06-22T21:39:36.034Z,11.50
2018-06-22T21:42:04.700Z,12.33
2018-06-22T21:44:33.342Z,10.23
2018-06-22T21:47:02.096Z,13.10
2018-06-22T21:49:30.622Z,12.87
2018-06-22T21:51:59.223Z,10.83
2018-06-22T21:54:27.832Z,10.13
2018-06-22T21:56:56.476Z,11.30
2018-06-22T21:59:25.053Z,12.93
2018-06-22T22:01:54.049Z,13.40
2018-06-22T22:04:22.640Z,9.77
2018-06-22T22:06:51.118Z,12.63
2018-06-22T22:09:19.777Z,9.40
2018-06-22T22:11:55.451Z,14.50
2018-06-22T22:14:25.458Z,17.13
2018-06-22T22:16:54.043Z,12.23
2018-06-22T22:19:22.709Z,13.50
2018-06-22T22:21:51.339Z,10.00
2018-06-22T22:24:19.890Z,11.63
2018-06-22T22:26:48.528Z,11.93
2018-06-22T22:29:17.211Z,10.63
2018-06-22T22:31:45.882Z,9.17
2018-06-22T22:34:14.520Z,12.50
2018-06-22T22:36:43.285Z,11.93
2018-06-22T22:39:11.850Z,13.63
2018-06-22T22:41:40.796Z,13.90
2018-06-22T22:44:09.827Z,9.73
2018-06-22T22:46:38.933Z,10.37
2018-06-22T22:49:07.672Z,10.73
2018-06-22T22:51:36.508Z,10.47
2018-06-22T22:54:05.141Z,13.20
2018-06-22T22:56:33.775Z,14.50
2018-06-22T22:59:02.367Z,9.13
2018-06-22T23:01:30.984Z,15.63
2018-06-22T23:03:59.644Z,10.57
2018-06-22T23:06:28.196Z,11.93
2018-06-22T23:08:56.817Z,10.03
2018-06-22T23:11:25.433Z,13.30
2018-06-22T23:13:53.982Z,13.20
2018-06-22T23:16:22.662Z,7.70
2018-06-22T23:18:51.447Z,10.03
2018-06-22T23:21:20.040Z,9.30
2018-06-22T23:23:48.623Z,11.37
2018-06-22T23:26:17.880Z,15.40
2018-06-22T23:28:46.604Z,14.60
2018-06-22T23:31:15.191Z,12.67
2018-06-22T23:33:43.719Z,16.70
2018-06-22T23:36:12.297Z,12.80
2018-06-22T23:38:40.920Z,15.13
2018-06-22T23:41:09.756Z,11.33
2018-06-22T23:43:38.395Z,12.07
2018-06-22T23:46:06.964Z,12.83
2018-06-22T23:48:35.559Z,12.53
2018-06-22T23:51:04.067Z,12.30
2018-06-22T23:53:32.714Z,11.27
2018-06-22T23:56:01.325Z,14.50
2018-06-22T23:58:29.994Z,12.63
